Airfield :
LOGIN :

Register | Disclaimer

   EN    FR    IT 

 










Legend :    VFR   Marginal VFR   IFR   Intensive IFR   Very Intensive IFR
Visi :
Ceiling :
>= 8 km
>= 3000ft
5 to 8 km
1000 to 3000 ft
1500m to 5 km
500 to 1000 ft
800 to 1500m
200 to 500 ft
< 800m
< 200 ft
Symbols :   Thunderstorms  Fog  Heavy snow  Heavy precipitations  Wind > 20 kt
SIGMETs :     Misc.  Thunderstorms  Icing  Turbulence  Mountain Waves  Volcanic Ashes







- Airport Elevation : 2265 ft
- IATA code : CZL


DABC - Mohamed Boudiaf Int. Constantine

CURRENT METAR :
  • 251800Z 35007KT 9999 FEW026 FEW030CB 21/14 Q1024

EXPIRED METARs :
  • 251730Z 02006KT 9999 FEW026 FEW030CB 22/14 Q1023
  • 251700Z 36008KT 9999 FEW026 FEW030TCU 24/14 Q1023
  • 251630Z 36010KT 9999 FEW023 FEW026TCU 25/14 Q1022
  • 251600Z 36011KT 9999 SCT026 FEW030CB 26/14 Q1022
  • 251530Z 36011KT 330V030 9999 FEW023 SCT026 26/15 Q1022

TAF TAF DABC
Valid from the 25 at 18:00 until the 26 at 18:00 UTC


251700Z 2518/2618 35010KT 9999 FEW026 FEW030TCU
PROB30
TEMPO 2518/2521 01015G25KT 5000 -TSRA FEW026CB BKN030
BECMG 2522/2524 VRB02KT NSW
No reported NOTAMs for that airfield.



MET'MAP, your aeronautical weather chart ! - Copyright ORBIFLY December 2007 - Disclaimer

ORBIFLY MET'MAP TEAM :

Programming & Development : Alexandra Zaïnal
Concept & Development : Baudouin d'Aumeries
Co-Development & Prog : Marc-Olivier Méhu
Technical & hardware support : Manuel Goepfert

Contact : metmap@orbifly.com




SOURCES & CREDITS :

   NOAA